Time,TemperatureF,DewpointF,PressureIn,WindDirection,WindDirectionDegrees,WindSpeedMPH,WindSpeedGustMPH,Humidity,HourlyPrecipIn,Conditions,Clouds,dailyrainin,SoftwareType,DateUTC
2013-04-22 00:08:00,69.8,69.0,30.09,North,355,0.0,-999.0,96,-99.99,,,1.20,weatherlink.com 1.10,2013-04-22 04:08:00,
2013-04-22 00:23:00,69.8,69.0,30.08,North,360,0.0,-999.0,96,-99.99,,,1.20,weatherlink.com 1.10,2013-04-22 04:23:00,
2013-04-22 00:38:00,69.9,69.0,30.09,North,360,0.0,-999.0,96,-99.99,,,1.20,weatherlink.com 1.10,2013-04-22 04:38:00,
2013-04-22 00:53:00,69.8,69.0,30.08,North,360,0.0,-999.0,96,-99.99,,,1.20,weatherlink.com 1.10,2013-04-22 04:53:00,
2013-04-22 01:08:00,69.8,69.0,30.08,North,360,0.0,-999.0,96,-99.99,,,0.00,weatherlink.com 1.10,2013-04-22 05:08:00,
2013-04-22 01:23:00,69.8,69.0,30.08,North,360,0.0,-999.0,96,-99.99,,,0.00,weatherlink.com 1.10,2013-04-22 05:23:00,
2013-04-22 01:38:00,69.7,69.0,30.08,North,360,0.0,-999.0,96,-99.99,,,0.00,weatherlink.com 1.10,2013-04-22 05:38:00,
2013-04-22 01:53:00,69.8,69.0,30.07,North,360,0.0,-999.0,96,-99.99,,,0.01,weatherlink.com 1.10,2013-04-22 05:53:00,
2013-04-22 02:08:00,69.8,69.0,30.07,North,360,0.0,-999.0,96,-99.99,,,0.01,weatherlink.com 1.10,2013-04-22 06:08:00,
2013-04-22 02:23:00,69.8,69.0,30.06,North,360,0.0,-999.0,96,-99.99,,,0.01,weatherlink.com 1.10,2013-04-22 06:23:00,
2013-04-22 02:38:00,69.8,69.0,30.06,NW,321,4.0,-999.0,97,-99.99,,,0.01,weatherlink.com 1.10,2013-04-22 06:38:00,
2013-04-22 02:53:00,69.7,69.0,30.05,NW,316,0.0,-999.0,97,-99.99,,,0.01,weatherlink.com 1.10,2013-04-22 06:53:00,
2013-04-22 03:08:00,69.4,68.0,30.03,North,360,0.0,-999.0,96,-99.99,,,0.01,weatherlink.com 1.10,2013-04-22 07:08:00,
2013-04-22 03:23:00,69.4,68.0,30.02,NNE,15,3.0,-999.0,96,-99.99,,,0.01,weatherlink.com 1.10,2013-04-22 07:23:00,
2013-04-22 03:38:00,69.2,68.0,30.02,NNE,30,0.0,-999.0,96,-99.99,,,0.01,weatherlink.com 1.10,2013-04-22 07:38:00,
2013-04-22 03:53:00,69.0,68.0,30.02,NE,50,2.0,-999.0,96,-99.99,,,0.01,weatherlink.com 1.10,2013-04-22 07:53:00,
2013-04-22 04:08:00,68.9,68.0,30.02,ENE,76,0.0,-999.0,96,-99.99,,,0.01,weatherlink.com 1.10,2013-04-22 08:08:00,
2013-04-22 04:23:00,68.9,68.0,30.02,East,80,3.0,-999.0,96,-99.99,,,0.01,weatherlink.com 1.10,2013-04-22 08:23:00,
2013-04-22 04:38:00,68.8,68.0,30.02,East,81,2.0,-999.0,96,-99.99,,,0.01,weatherlink.com 1.10,2013-04-22 08:38:00,
2013-04-22 04:53:00,68.8,68.0,30.02,East,82,0.0,-999.0,96,-99.99,,,0.01,weatherlink.com 1.10,2013-04-22 08:53:00,
2013-04-22 05:08:00,68.6,68.0,30.02,East,95,2.0,-999.0,96,-99.99,,,0.01,weatherlink.com 1.10,2013-04-22 09:08:00,
2013-04-22 05:23:00,68.5,67.0,30.02,East,99,2.0,-999.0,96,-99.99,,,0.01,weatherlink.com 1.10,2013-04-22 09:23:00,
2013-04-22 05:38:00,68.5,67.0,30.02,East,98,4.0,-999.0,96,-99.99,,,0.01,weatherlink.com 1.10,2013-04-22 09:38:00,
2013-04-22 05:53:00,68.4,67.0,30.01,East,98,0.0,-999.0,96,-99.99,,,0.01,weatherlink.com 1.10,2013-04-22 09:53:00,
2013-04-22 06:08:00,68.3,67.0,29.99,East,88,3.0,-999.0,96,-99.99,,,0.01,weatherlink.com 1.10,2013-04-22 10:08:00,
2013-04-22 06:23:00,68.2,67.0,30.00,East,98,1.0,-999.0,96,-99.99,,,0.01,weatherlink.com 1.10,2013-04-22 10:23:00,
2013-04-22 06:38:00,68.0,67.0,30.00,ESE,103,6.0,-999.0,96,-99.99,,,0.01,weatherlink.com 1.10,2013-04-22 10:38:00,
2013-04-22 06:53:00,68.0,67.0,29.99,East,94,2.0,-999.0,96,-99.99,,,0.01,weatherlink.com 1.10,2013-04-22 10:53:00,
2013-04-22 07:08:00,67.8,67.0,30.01,East,92,0.0,-999.0,96,-99.99,,,0.01,weatherlink.com 1.10,2013-04-22 11:08:00,
2013-04-22 07:23:00,67.8,67.0,30.02,East,92,0.0,-999.0,96,-99.99,,,0.01,weatherlink.com 1.10,2013-04-22 11:23:00,
2013-04-22 07:38:00,67.9,67.0,30.02,East,92,0.0,-999.0,96,-99.99,,,0.01,weatherlink.com 1.10,2013-04-22 11:38:00,
2013-04-22 07:53:00,68.1,67.0,30.03,East,92,0.0,-999.0,96,-99.99,,,0.01,weatherlink.com 1.10,2013-04-22 11:53:00,
2013-04-22 08:08:00,68.8,68.0,30.03,ENE,74,2.0,-999.0,96,-99.99,,,0.01,weatherlink.com 1.10,2013-04-22 12:08:00,
2013-04-22 08:23:00,69.4,68.0,30.04,ENE,71,4.0,-999.0,95,-99.99,,,0.01,weatherlink.com 1.10,2013-04-22 12:23:00,
2013-04-22 08:39:00,70.0,68.0,30.04,ENE,65,0.0,-999.0,93,-99.99,,,0.01,weatherlink.com 1.10,2013-04-22 12:39:00,
2013-04-22 08:54:00,70.7,68.0,30.04,ENE,68,0.0,-999.0,92,-99.99,,,0.01,weatherlink.com 1.10,2013-04-22 12:54:00,
2013-04-22 09:09:00,71.6,69.0,30.05,ENE,67,0.0,-999.0,91,-99.99,,,0.01,weatherlink.com 1.10,2013-04-22 13:09:00,
2013-04-22 09:24:00,72.3,69.0,30.06,ENE,71,0.0,-999.0,88,-99.99,,,0.01,weatherlink.com 1.10,2013-04-22 13:24:00,
2013-04-22 09:39:00,73.2,69.0,30.06,ENE,73,2.0,-999.0,87,-99.99,,,0.01,weatherlink.com 1.10,2013-04-22 13:39:00,
2013-04-22 09:54:00,73.5,69.0,30.07,East,82,6.0,-999.0,86,-99.99,,,0.01,weatherlink.com 1.10,2013-04-22 13:54:00,
2013-04-22 10:08:00,-999.0,-99.9,0.00,North,-999,-999.0,-999.0,-999,-99.99,,,0.00,weatherlink.com 1.10,2013-04-22 14:08:00,
2013-04-22 10:20:00,74.7,-99.9,30.07,East,79,7.0,-999.0,-999,-99.99,,,0.00,weatherlink.com 1.10,2013-04-22 14:20:00,
2013-04-22 10:36:00,76.0,71.0,30.07,East,88,8.0,-999.0,83,-99.99,,,0.00,weatherlink.com 1.10,2013-04-22 14:36:00,
2013-04-22 10:51:00,76.5,71.0,30.07,ENE,75,7.0,-999.0,83,-99.99,,,0.00,weatherlink.com 1.10,2013-04-22 14:51:00,
2013-04-22 11:06:00,77.0,72.0,30.07,East,100,8.0,-999.0,83,-99.99,,,0.01,weatherlink.com 1.10,2013-04-22 15:06:00,
2013-04-22 11:21:00,78.2,72.0,30.07,ESE,111,8.0,-999.0,82,-99.99,,,0.01,weatherlink.com 1.10,2013-04-22 15:21:00,
2013-04-22 11:36:00,79.1,72.0,30.07,ENE,64,7.0,-999.0,80,-99.99,,,0.01,weatherlink.com 1.10,2013-04-22 15:36:00,
2013-04-22 11:51:00,79.8,74.0,30.07,East,93,8.0,-999.0,81,-99.99,,,0.01,weatherlink.com 1.10,2013-04-22 15:51:00,
2013-04-22 12:06:00,80.8,75.0,30.06,ESE,103,5.0,-999.0,81,-99.99,,,0.01,weatherlink.com 1.10,2013-04-22 16:06:00,
2013-04-22 12:21:00,81.7,73.0,30.06,SE,126,0.0,-999.0,76,-99.99,,,0.01,weatherlink.com 1.10,2013-04-22 16:21:00,
2013-04-22 12:36:00,83.7,77.0,30.05,ENE,74,2.0,-999.0,79,-99.99,,,0.01,weatherlink.com 1.10,2013-04-22 16:36:00,
2013-04-22 12:51:00,84.4,76.0,30.04,East,84,0.0,-999.0,75,-99.99,,,0.01,weatherlink.com 1.10,2013-04-22 16:51:00,
2013-04-22 13:06:00,85.1,76.0,30.03,NE,46,0.0,-999.0,75,-99.99,,,0.01,weatherlink.com 1.10,2013-04-22 17:06:00,
2013-04-22 13:21:00,84.8,74.0,30.02,NW,312,5.0,-999.0,70,-99.99,,,0.01,weatherlink.com 1.10,2013-04-22 17:21:00,
2013-04-22 13:36:00,83.7,73.0,30.02,NNE,32,0.0,-999.0,70,-99.99,,,0.01,weatherlink.com 1.10,2013-04-22 17:36:00,
2013-04-22 13:51:00,81.2,74.0,30.02,WNW,293,0.0,-999.0,79,-99.99,,,0.03,weatherlink.com 1.10,2013-04-22 17:51:00,
2013-04-22 14:06:00,77.9,74.0,30.02,WNW,293,0.0,-999.0,87,-99.99,,,0.12,weatherlink.com 1.10,2013-04-22 18:06:00,
2013-04-22 14:21:00,78.5,76.0,30.01,WNW,293,0.0,-999.0,92,-99.99,,,0.12,weatherlink.com 1.10,2013-04-22 18:21:00,
2013-04-22 14:36:00,80.7,76.0,30.00,WNW,301,4.0,-999.0,84,-99.99,,,0.12,weatherlink.com 1.10,2013-04-22 18:36:00,
2013-04-22 14:51:00,82.3,74.0,30.00,West,275,5.0,-999.0,77,-99.99,,,0.12,weatherlink.com 1.10,2013-04-22 18:51:00,
2013-04-22 15:06:00,82.9,75.0,30.00,WNW,302,8.0,-999.0,76,-99.99,,,0.12,weatherlink.com 1.10,2013-04-22 19:06:00,
2013-04-22 15:21:00,81.7,73.0,29.99,WNW,300,6.0,-999.0,76,-99.99,,,0.12,weatherlink.com 1.10,2013-04-22 19:21:00,
2013-04-22 15:36:00,81.7,73.0,29.98,WNW,291,6.0,-999.0,75,-99.99,,,0.12,weatherlink.com 1.10,2013-04-22 19:36:00,
2013-04-22 15:51:00,83.6,74.0,29.97,WNW,299,5.0,-999.0,72,-99.99,,,0.12,weatherlink.com 1.10,2013-04-22 19:51:00,
2013-04-22 16:06:00,83.9,74.0,29.97,WNW,301,7.0,-999.0,72,-99.99,,,0.12,weatherlink.com 1.10,2013-04-22 20:06:00,
2013-04-22 16:21:00,84.0,73.0,29.96,West,259,3.0,-999.0,69,-99.99,,,0.12,weatherlink.com 1.10,2013-04-22 20:21:00,
2013-04-22 16:36:00,83.8,74.0,29.96,WNW,290,7.0,-999.0,72,-99.99,,,0.12,weatherlink.com 1.10,2013-04-22 20:36:00,
2013-04-22 16:52:00,84.0,71.0,29.96,West,269,8.0,-999.0,65,-99.99,,,0.12,weatherlink.com 1.10,2013-04-22 20:52:00,
2013-04-22 17:07:00,84.4,71.0,29.97,West,274,9.0,-999.0,64,-99.99,,,0.12,weatherlink.com 1.10,2013-04-22 21:07:00,
2013-04-22 17:22:00,84.0,70.0,29.97,NW,313,5.0,-999.0,63,-99.99,,,0.12,weatherlink.com 1.10,2013-04-22 21:22:00,
2013-04-22 17:52:00,83.7,73.0,29.96,WNW,288,2.0,-999.0,70,-99.99,,,0.12,weatherlink.com 1.10,2013-04-22 21:52:00,
2013-04-22 18:07:00,83.3,74.0,29.97,West,269,5.0,-999.0,73,-99.99,,,0.12,weatherlink.com 1.10,2013-04-22 22:07:00,
2013-04-22 18:22:00,82.4,73.0,29.97,WNW,287,7.0,-999.0,74,-99.99,,,0.12,weatherlink.com 1.10,2013-04-22 22:22:00,
2013-04-22 18:37:00,81.8,73.0,29.97,WNW,283,6.0,-999.0,75,-99.99,,,0.12,weatherlink.com 1.10,2013-04-22 22:37:00,
2013-04-22 18:52:00,81.1,73.0,29.97,WNW,287,5.0,-999.0,77,-99.99,,,0.12,weatherlink.com 1.10,2013-04-22 22:52:00,
2013-04-22 19:07:00,78.2,72.0,29.99,NE,51,2.0,-999.0,80,-99.99,,,0.12,weatherlink.com 1.10,2013-04-22 23:07:00,
2013-04-22 19:22:00,76.7,72.0,30.00,NNW,338,5.0,-999.0,84,-99.99,,,0.12,weatherlink.com 1.10,2013-04-22 23:22:00,
2013-04-22 19:37:00,75.5,73.0,30.00,East,86,5.0,-999.0,90,-99.99,,,0.24,weatherlink.com 1.10,2013-04-22 23:37:00,
2013-04-22 19:52:00,74.3,72.0,30.01,ESE,111,0.0,-999.0,92,-99.99,,,0.25,weatherlink.com 1.10,2013-04-22 23:52:00,
2013-04-22 20:07:00,73.7,72.0,30.01,ESE,113,0.0,-999.0,93,-99.99,,,0.25,weatherlink.com 1.10,2013-04-23 00:07:00,
2013-04-22 20:22:00,73.4,72.0,30.02,East,93,1.0,-999.0,94,-99.99,,,0.26,weatherlink.com 1.10,2013-04-23 00:22:00,
2013-04-22 20:37:00,73.2,71.0,30.02,East,101,1.0,-999.0,94,-99.99,,,0.26,weatherlink.com 1.10,2013-04-23 00:37:00,
2013-04-22 20:52:00,73.1,72.0,30.02,East,101,4.0,-999.0,95,-99.99,,,0.26,weatherlink.com 1.10,2013-04-23 00:52:00,
2013-04-22 21:07:00,72.7,71.0,30.03,East,84,5.0,-999.0,95,-99.99,,,0.26,weatherlink.com 1.10,2013-04-23 01:07:00,
2013-04-22 21:22:00,72.3,71.0,30.03,ESE,104,4.0,-999.0,95,-99.99,,,0.26,weatherlink.com 1.10,2013-04-23 01:22:00,
2013-04-22 21:37:00,72.1,70.0,30.04,East,90,2.0,-999.0,94,-99.99,,,0.26,weatherlink.com 1.10,2013-04-23 01:37:00,
2013-04-22 21:52:00,71.8,70.0,30.04,ESE,102,0.0,-999.0,94,-99.99,,,0.26,weatherlink.com 1.10,2013-04-23 01:52:00,
2013-04-22 22:07:00,71.7,70.0,30.05,ESE,102,0.0,-999.0,95,-99.99,,,0.26,weatherlink.com 1.10,2013-04-23 02:07:00,
2013-04-22 22:22:00,71.4,70.0,30.05,ENE,76,3.0,-999.0,95,-99.99,,,0.26,weatherlink.com 1.10,2013-04-23 02:22:00,
2013-04-22 22:37:00,71.3,70.0,30.06,East,85,5.0,-999.0,95,-99.99,,,0.26,weatherlink.com 1.10,2013-04-23 02:37:00,
2013-04-22 22:52:00,70.9,70.0,30.06,NE,53,2.0,-999.0,95,-99.99,,,0.26,weatherlink.com 1.10,2013-04-23 02:52:00,
2013-04-22 23:07:00,70.8,69.0,30.06,ENE,78,0.0,-999.0,94,-99.99,,,0.26,weatherlink.com 1.10,2013-04-23 03:07:00,
2013-04-22 23:22:00,70.4,69.0,30.05,NE,51,3.0,-999.0,94,-99.99,,,0.26,weatherlink.com 1.10,2013-04-23 03:22:00,
2013-04-22 23:37:00,70.0,68.0,30.05,ESE,106,2.0,-999.0,94,-99.99,,,0.26,weatherlink.com 1.10,2013-04-23 03:37:00,
2013-04-22 23:52:00,69.8,68.0,30.05,ESE,113,4.0,-999.0,94,-99.99,,,0.26,weatherlink.com 1.10,2013-04-23 03:52:00,